Time;durP1;ratioP1;P1;durP2;ratioP2;P2;SDS_P1;SDS_P2;PMS_P1;PMS_P2;Temp;Humidity;BMP_temperature;BMP_pressure;BME280_temperature;BME280_humidity;BME280_pressure;Samples;Min_cycle;Max_cycle;Signal;HPM_P1;HPM_P2
2020/12/06 00:01:46;;;;;;;;;;;;;;;19.01;64.96;101499.28;4996889;28;1616;-51
2020/12/06 00:04:11;;;;;;;;;;;;;;;19.01;65.16;101503.81;4996181;28;1545;-52
2020/12/06 00:06:37;;;;;;;;;;;;;;;19.01;64.43;101504.66;4996570;28;1507;-52
2020/12/06 00:09:06;;;;;;;;;;;;;;;18.98;64.41;101506.69;4996430;28;1747;-51
2020/12/06 00:11:32;;;;;;;;;;;;;;;19.00;64.43;101519.03;4996564;28;1461;-51
2020/12/06 00:13:57;;;;;;;;;;;;;;;18.94;64.34;101514.16;4996542;28;1283;-52
2020/12/06 00:16:22;;;;;;;;;;;;;;;18.93;64.36;101517.78;4996663;28;1402;-51
2020/12/06 00:18:48;;;;;;;;;;;;;;;18.90;64.01;101512.66;4996549;28;1902;-51
2020/12/06 00:21:17;;;;;;;;;;;;;;;18.92;64.11;101512.53;4996471;28;1388;-52
2020/12/06 00:23:42;;;;;;;;;;;;;;;18.93;63.96;101517.78;4996181;28;1479;-51
2020/12/06 00:26:08;;;;;;;;;;;;;;;18.88;63.85;101522.66;4996610;28;1474;-52
2020/12/06 00:28:33;;;;;;;;;;;;;;;18.84;63.91;101513.13;4996558;28;1578;-51
2020/12/06 00:30:58;;;;;;;;;;;;;;;18.93;63.52;101524.97;4996181;28;1669;-52
2020/12/06 00:33:24;;;;;;;;;;;;;;;18.86;63.51;101509.38;4995806;28;1384;-52
2020/12/06 00:35:49;;;;;;;;;;;;;;;18.84;63.70;101497.91;4996585;28;1611;-51
2020/12/06 00:38:14;;;;;;;;;;;;;;;18.84;63.52;101494.34;4996142;28;1941;-52
2020/12/06 00:40:39;;;;;;;;;;;;;;;18.85;63.16;101506.78;4996571;28;822;-52
2020/12/06 00:43:05;;;;;;;;;;;;;;;18.83;63.68;101512.25;4995693;28;1733;-53
2020/12/06 00:45:30;;;;;;;;;;;;;;;18.80;63.70;101499.13;4995579;28;1532;-52
2020/12/06 00:47:55;;;;;;;;;;;;;;;18.75;63.29;101509.28;4996137;28;864;-52
2020/12/06 00:50:21;;;;;;;;;;;;;;;18.78;63.25;101518.91;4995942;28;835;-52
2020/12/06 00:52:46;;;;;;;;;;;;;;;18.75;63.01;101498.56;4996104;28;1638;-51
2020/12/06 00:55:11;;;;;;;;;;;;;;;18.78;63.08;101500.16;4994508;28;1595;-52
2020/12/06 00:57:36;;;;;;;;;;;;;;;18.77;62.95;101501.13;4995647;28;2437;-51
2020/12/06 01:00:04;;;;;;;;;;;;;;;18.76;63.07;101499.41;4995274;28;1914;-51
2020/12/06 01:02:29;;;;;;;;;;;;;;;18.73;63.23;101487.09;4995208;28;1635;-52
2020/12/06 01:04:54;;;;;;;;;;;;;;;18.75;63.25;101487.84;4994755;28;1679;-51
2020/12/06 01:07:19;;;;;;;;;;;;;;;18.72;62.91;101487.22;4995804;28;1490;-51
2020/12/06 01:09:45;;;;;;;;;;;;;;;18.73;63.16;101491.63;4995079;28;1624;-52
2020/12/06 01:12:10;;;;;;;;;;;;;;;18.70;62.82;101484.66;4994840;28;1834;-51
2020/12/06 01:14:35;;;;;;;;;;;;;;;18.72;63.13;101489.91;4995432;28;1582;-51
2020/12/06 01:17:00;;;;;;;;;;;;;;;18.73;62.69;101472.88;4994898;28;1607;-51
2020/12/06 01:19:26;;;;;;;;;;;;;;;18.71;62.89;101472.13;4994039;28;1948;-52
2020/12/06 01:21:51;;;;;;;;;;;;;;;18.66;62.70;101467.97;4994397;28;1396;-51
2020/12/06 01:24:17;;;;;;;;;;;;;;;18.69;62.73;101482.97;4984013;28;11039;-52
2020/12/06 01:26:49;;;;;;;;;;;;;;;18.68;62.80;101481.22;5018802;28;1460;-52
2020/12/06 01:29:14;;;;;;;;;;;;;;;18.70;62.63;101465.91;5014398;28;1473;-52
2020/12/06 01:31:46;;;;;;;;;;;;;;;18.64;62.51;101479.75;5014861;28;1677;-51
2020/12/06 01:34:11;;;;;;;;;;;;;;;18.67;62.39;101461.63;5014550;28;1700;-51
2020/12/06 01:36:37;;;;;;;;;;;;;;;18.64;62.54;101483.31;5013804;28;1586;-52
2020/12/06 01:39:02;;;;;;;;;;;;;;;18.66;62.39;101478.69;5014543;28;1957;-51
2020/12/06 01:41:27;;;;;;;;;;;;;;;18.64;62.04;101466.38;5014587;28;2011;-51
2020/12/06 01:43:56;;;;;;;;;;;;;;;18.63;61.91;101476.22;5013537;28;1621;-51
2020/12/06 01:46:22;;;;;;;;;;;;;;;18.61;62.06;101475.50;5014557;28;1620;-52
2020/12/06 01:48:48;;;;;;;;;;;;;;;18.62;62.03;101479.03;5013933;28;1557;-51
2020/12/06 01:51:15;;;;;;;;;;;;;;;18.58;62.37;101469.50;5014091;28;1630;-51
2020/12/06 01:53:40;;;;;;;;;;;;;;;18.63;61.67;101483.41;5013565;28;1630;-51
2020/12/06 01:56:05;;;;;;;;;;;;;;;18.61;61.86;101467.47;5014158;28;1629;-51
2020/12/06 01:58:31;;;;;;;;;;;;;;;18.59;62.43;101482.78;5013717;28;1976;-51
2020/12/06 02:00:56;;;;;;;;;;;;;;;18.53;62.20;101467.19;5014247;28;1704;-51
2020/12/06 02:03:21;;;;;;;;;;;;;;;18.56;61.92;101477.69;5014029;28;1530;-51
2020/12/06 02:05:46;;;;;;;;;;;;;;;18.52;61.83;101481.53;5014135;28;1617;-51
2020/12/06 02:08:12;;;;;;;;;;;;;;;18.56;61.76;101488.41;5014402;28;1742;-51
2020/12/06 02:10:37;;;;;;;;;;;;;;;18.56;61.42;101476.81;5013964;28;1580;-52
2020/12/06 02:13:03;;;;;;;;;;;;;;;18.55;61.39;101473.28;5013829;28;1554;-52
2020/12/06 02:15:28;;;;;;;;;;;;;;;18.50;61.55;101486.16;5013742;28;1612;-51
2020/12/06 02:17:53;;;;;;;;;;;;;;;18.50;61.77;101478.13;5014061;28;1667;-51
2020/12/06 02:20:19;;;;;;;;;;;;;;;18.54;61.27;101481.44;5013967;28;1964;-51
2020/12/06 02:22:44;;;;;;;;;;;;;;;18.46;61.09;101469.47;5013489;28;1633;-51
2020/12/06 02:25:10;;;;;;;;;;;;;;;18.51;61.76;101463.75;5013825;28;1598;-51
2020/12/06 02:27:35;;;;;;;;;;;;;;;18.50;61.74;101462.03;5013884;28;1622;-52
2020/12/06 02:30:00;;;;;;;;;;;;;;;18.47;61.60;101470.31;5013803;28;1568;-51
2020/12/06 02:32:25;;;;;;;;;;;;;;;18.47;61.00;101462.28;5013699;28;1686;-51
2020/12/06 02:34:51;;;;;;;;;;;;;;;18.41;61.57;101466.28;5013762;28;1614;-50
2020/12/06 02:37:16;;;;;;;;;;;;;;;18.47;61.05;101483.72;5013535;28;1606;-51
2020/12/06 02:39:41;;;;;;;;;;;;;;;18.49;61.43;101481.78;5013129;28;1949;-51
2020/12/06 02:42:07;;;;;;;;;;;;;;;18.47;60.76;101478.38;5014004;28;1625;-52
2020/12/06 02:44:32;;;;;;;;;;;;;;;18.44;61.51;101478.56;5013441;28;1576;-52
2020/12/06 02:47:00;;;;;;;;;;;;;;;18.40;61.41;101480.66;5013547;28;1695;-51
2020/12/06 02:49:26;;;;;;;;;;;;;;;18.40;61.07;101477.09;5013537;28;1648;-51
2020/12/06 02:51:51;;;;;;;;;;;;;;;18.49;61.30;101492.50;5013807;28;1788;-51
2020/12/06 02:54:16;;;;;;;;;;;;;;;18.40;60.83;101482.44;5014073;28;1582;-52
2020/12/06 02:56:42;;;;;;;;;;;;;;;18.45;61.18;101491.00;5017776;28;1531;-51
2020/12/06 02:59:07;;;;;;;;;;;;;;;18.46;60.30;101487.34;5017885;28;1914;-51
2020/12/06 03:01:32;;;;;;;;;;;;;;;18.46;60.71;101480.19;5017707;28;1643;-51
2020/12/06 03:03:58;;;;;;;;;;;;;;;18.43;60.88;101482.25;5017640;28;1690;-51
2020/12/06 03:06:23;;;;;;;;;;;;;;;18.39;61.04;101478.09;5017018;28;1620;-52
2020/12/06 03:08:49;;;;;;;;;;;;;;;18.35;61.20;101484.63;5017648;28;1642;-51
2020/12/06 03:11:14;;;;;;;;;;;;;;;18.32;60.91;101483.03;5017631;28;1495;-51
2020/12/06 03:13:39;;;;;;;;;;;;;;;18.32;61.42;101490.19;5015989;28;1568;-51
2020/12/06 03:16:05;;;;;;;;;;;;;;;18.09;63.56;101492.75;5017389;28;1671;-51
2020/12/06 03:18:30;;;;;;;;;;;;;;;17.95;64.70;101482.22;5017061;28;1957;-51
2020/12/06 03:20:55;;;;;;;;;;;;;;;17.89;64.50;101484.34;5017450;28;1596;-51
2020/12/06 03:23:21;;;;;;;;;;;;;;;17.83;64.86;101484.78;5016784;28;1450;-51
2020/12/06 03:25:46;;;;;;;;;;;;;;;17.81;65.40;101476.00;5016653;28;1653;-51
2020/12/06 03:28:11;;;;;;;;;;;;;;;17.81;65.01;101481.34;5017214;28;1696;-51
2020/12/06 03:30:36;;;;;;;;;;;;;;;17.79;65.64;101483.28;5017196;28;1600;-51
2020/12/06 03:33:02;;;;;;;;;;;;;;;17.78;65.83;101484.22;5017116;28;920;-51
2020/12/06 03:35:27;;;;;;;;;;;;;;;17.77;66.40;101479.84;5017074;28;909;-51
2020/12/06 03:37:52;;;;;;;;;;;;;;;17.76;65.64;101483.47;5016991;28;846;-51
2020/12/06 03:40:17;;;;;;;;;;;;;;;17.74;65.74;101488.09;5016662;28;1882;-51
2020/12/06 03:42:43;;;;;;;;;;;;;;;17.75;65.52;101497.00;5016994;28;1593;-51
2020/12/06 03:45:08;;;;;;;;;;;;;;;17.73;65.87;101491.75;5016806;28;1590;-51
2020/12/06 03:47:33;;;;;;;;;;;;;;;17.69;66.77;101471.53;5016883;28;1617;-51
2020/12/06 03:49:59;;;;;;;;;;;;;;;17.71;66.66;101496.34;5016754;28;1557;-51
2020/12/06 03:52:24;;;;;;;;;;;;;;;17.73;66.33;101506.94;5016856;28;1789;-51
2020/12/06 03:54:50;;;;;;;;;;;;;;;17.71;67.02;101493.66;5016912;28;1651;-51
2020/12/06 03:57:15;;;;;;;;;;;;;;;17.72;65.95;101490.00;5016515;28;1569;-51
2020/12/06 03:59:41;;;;;;;;;;;;;;;17.69;67.13;101487.56;5016322;28;1985;-52
2020/12/06 04:02:06;;;;;;;;;;;;;;;17.70;66.56;101492.78;5016109;28;1548;-51
2020/12/06 04:04:31;;;;;;;;;;;;;;;17.70;66.81;101508.84;5016577;28;1671;-51
2020/12/06 04:06:56;;;;;;;;;;;;;;;17.69;67.57;101506.31;5016188;28;1622;-51
2020/12/06 04:09:22;;;;;;;;;;;;;;;17.71;68.10;101501.69;5016402;28;1625;-52
2020/12/06 04:11:47;;;;;;;;;;;;;;;17.68;67.46;101501.91;5016203;28;1755;-51
2020/12/06 04:14:12;;;;;;;;;;;;;;;17.66;67.23;101506.50;5015905;28;1463;-52
2020/12/06 04:16:37;;;;;;;;;;;;;;;17.64;68.39;101500.41;5015706;28;1582;-52
2020/12/06 04:19:03;;;;;;;;;;;;;;;17.64;67.85;101506.59;5016365;28;1902;-51
2020/12/06 04:21:28;;;;;;;;;;;;;;;17.71;67.25;101517.75;5015641;28;1468;-52
2020/12/06 04:23:53;;;;;;;;;;;;;;;17.59;67.69;101494.53;5015884;28;821;-52
2020/12/06 04:26:18;;;;;;;;;;;;;;;17.58;68.49;101511.53;5014787;28;933;-53
2020/12/06 04:28:43;;;;;;;;;;;;;;;17.58;67.79;101490.16;5014424;28;1513;-53
2020/12/06 04:31:09;;;;;;;;;;;;;;;17.53;67.13;101498.50;5014224;28;1676;-53
2020/12/06 04:33:34;;;;;;;;;;;;;;;17.59;67.86;101513.25;5013171;28;1410;-54
2020/12/06 04:35:59;;;;;;;;;;;;;;;17.58;68.71;101495.50;5014675;28;1296;-53
2020/12/06 04:38:24;;;;;;;;;;;;;;;17.66;67.89;101514.53;5012982;28;1890;-54
2020/12/06 04:40:50;;;;;;;;;;;;;;;17.62;68.69;101513.03;5014720;28;1304;-53
2020/12/06 04:43:17;;;;;;;;;;;;;;;17.58;67.86;101516.88;5014607;28;1249;-53
2020/12/06 04:45:42;;;;;;;;;;;;;;;17.56;68.33;101526.84;5010672;28;1210;-52
2020/12/06 04:48:15;;;;;;;;;;;;;;;17.57;68.88;101526.75;5014052;28;1288;-53
2020/12/06 04:50:43;;;;;;;;;;;;;;;17.53;67.81;101535.06;5014487;28;1292;-53
2020/12/06 04:53:12;;;;;;;;;;;;;;;17.53;68.77;101527.91;5014451;28;1316;-53
2020/12/06 04:55:38;;;;;;;;;;;;;;;17.52;68.55;101528.88;5014047;28;1276;-53
2020/12/06 04:58:04;;;;;;;;;;;;;;;17.52;67.92;101536.03;5014788;28;1300;-52
2020/12/06 05:00:33;;;;;;;;;;;;;;;17.52;68.02;101526.19;5015489;28;1967;-53
2020/12/06 05:02:59;;;;;;;;;;;;;;;17.49;68.74;101524.59;5015236;28;1590;-52
2020/12/06 05:05:30;;;;;;;;;;;;;;;17.48;68.71;101549.59;5015053;28;1847;-53
2020/12/06 05:07:59;;;;;;;;;;;;;;;17.47;68.91;101542.56;5014931;28;1884;-52
2020/12/06 05:10:25;;;;;;;;;;;;;;;17.50;67.75;101542.34;5015166;28;1762;-53
2020/12/06 05:12:50;;;;;;;;;;;;;;;17.46;68.15;101543.50;5015370;28;1757;-53
2020/12/06 05:15:15;;;;;;;;;;;;;;;17.49;68.00;101540.63;5015111;28;1717;-52
2020/12/06 05:17:41;;;;;;;;;;;;;;;17.49;68.83;101546.00;5014511;28;1829;-52
2020/12/06 05:20:09;;;;;;;;;;;;;;;17.47;69.07;101547.91;5014121;28;2011;-53
2020/12/06 05:22:34;;;;;;;;;;;;;;;17.44;68.15;101542.75;5015132;28;1725;-52
2020/12/06 05:25:00;;;;;;;;;;;;;;;17.45;68.53;101549.84;5014961;28;1757;-53
2020/12/06 05:27:25;;;;;;;;;;;;;;;17.46;69.20;101562.22;5014972;28;1958;-53
2020/12/06 05:29:51;;;;;;;;;;;;;;;17.42;68.95;101550.03;5014993;28;1801;-52
2020/12/06 05:32:16;;;;;;;;;;;;;;;17.44;68.03;101558.81;5015068;28;1659;-53
2020/12/06 05:34:41;;;;;;;;;;;;;;;17.44;68.14;101557.97;5014633;28;1815;-53
2020/12/06 05:37:07;;;;;;;;;;;;;;;17.44;68.25;101564.16;5014516;28;1699;-52
2020/12/06 05:39:32;;;;;;;;;;;;;;;17.41;68.61;101566.22;5014027;28;1947;-53
2020/12/06 05:41:58;;;;;;;;;;;;;;;17.41;68.93;101591.13;5014893;28;1867;-53
2020/12/06 05:44:23;;;;;;;;;;;;;;;17.44;68.33;101590.91;5014802;28;1868;-52
2020/12/06 05:46:49;;;;;;;;;;;;;;;17.40;68.02;101578.69;5014659;28;1720;-53
2020/12/06 05:49:17;;;;;;;;;;;;;;;17.40;68.99;101581.38;5014604;28;1884;-52
2020/12/06 05:51:48;;;;;;;;;;;;;;;17.40;68.53;101575.19;5014292;28;1531;-53
2020/12/06 05:54:13;;;;;;;;;;;;;;;17.39;68.72;101587.69;5014623;28;1803;-52
2020/12/06 05:56:43;;;;;;;;;;;;;;;17.40;68.53;101583.19;5014322;28;1798;-53
2020/12/06 05:59:08;;;;;;;;;;;;;;;17.41;68.52;101593.78;5014214;28;1922;-53
2020/12/06 06:01:33;;;;;;;;;;;;;;;17.40;69.00;101593.91;5013994;28;1840;-53
2020/12/06 06:03:59;;;;;;;;;;;;;;;17.38;69.37;101595.81;5014542;28;1787;-53
2020/12/06 06:06:25;;;;;;;;;;;;;;;17.35;68.29;101599.56;5013847;28;1678;-52
2020/12/06 06:08:52;;;;;;;;;;;;;;;17.38;68.64;101599.34;5014049;28;1766;-53
2020/12/06 06:11:26;;;;;;;;;;;;;;;17.35;68.21;101599.56;5014457;28;1834;-53
2020/12/06 06:13:52;;;;;;;;;;;;;;;17.37;68.98;101607.47;4999328;28;1816;-53
2020/12/06 06:16:18;;;;;;;;;;;;;;;17.38;68.29;101606.50;5014092;28;1758;-53
2020/12/06 06:18:44;;;;;;;;;;;;;;;17.37;69.55;101594.09;5012758;28;1898;-53
2020/12/06 06:21:09;;;;;;;;;;;;;;;17.38;69.38;101618.06;5013237;28;1449;-53
2020/12/06 06:23:35;;;;;;;;;;;;;;;17.38;69.70;101609.19;5012767;28;1618;-53
2020/12/06 06:26:00;;;;;;;;;;;;;;;17.35;69.30;101617.41;5013375;28;1484;-53
2020/12/06 06:28:25;;;;;;;;;;;;;;;17.33;69.48;101609.50;5013847;28;1786;-53
2020/12/06 06:30:51;;;;;;;;;;;;;;;17.35;69.47;101607.59;5012770;28;1546;-53
2020/12/06 06:33:21;;;;;;;;;;;;;;;17.35;68.39;101610.25;5013045;28;1759;-53
2020/12/06 06:35:46;;;;;;;;;;;;;;;17.34;68.78;101621.03;5011610;28;1649;-52
2020/12/06 06:38:11;;;;;;;;;;;;;;;17.36;69.57;101624.47;5012433;28;1976;-53
2020/12/06 06:40:38;;;;;;;;;;;;;;;17.34;68.70;101611.19;5013327;28;1502;-53
2020/12/06 06:43:04;;;;;;;;;;;;;;;17.32;69.45;101623.81;5013235;28;1517;-53
2020/12/06 06:45:31;;;;;;;;;;;;;;;17.33;69.61;101625.53;5013018;28;1490;-53
2020/12/06 06:47:56;;;;;;;;;;;;;;;17.36;68.40;101625.31;5013818;28;1743;-52
2020/12/06 06:50:24;;;;;;;;;;;;;;;17.92;67.15;101611.69;5012332;28;1607;-40
2020/12/06 06:52:53;;;;;;;;;;;;;;;17.72;67.72;101609.53;5013801;28;1879;-40
2020/12/06 06:55:18;;;;;;;;;;;;;;;17.65;67.61;101619.81;5013833;28;1866;-40
2020/12/06 06:57:44;;;;;;;;;;;;;;;17.61;68.05;101624.53;5012465;28;1767;-40
2020/12/06 07:00:09;;;;;;;;;;;;;;;17.60;68.43;101611.25;5013554;28;1910;-40
2020/12/06 07:02:34;;;;;;;;;;;;;;;17.60;68.32;101627.28;5012688;28;1863;-40
2020/12/06 07:05:01;;;;;;;;;;;;;;;17.63;69.36;101629.78;5013917;28;921;-40
2020/12/06 07:07:37;;;;;;;;;;;;;;;17.65;68.96;101620.66;5013311;28;1797;-40
2020/12/06 07:10:06;;;;;;;;;;;;;;;17.65;69.02;101626.03;5013541;28;1740;-40
2020/12/06 07:12:37;;;;;;;;;;;;;;;17.69;68.83;101626.66;5000216;28;1702;-40
2020/12/06 07:15:05;;;;;;;;;;;;;;;17.69;69.18;101632.03;5012812;28;1760;-41
2020/12/06 07:17:30;;;;;;;;;;;;;;;17.64;68.51;101629.63;5012816;28;1793;-40
2020/12/06 07:19:55;;;;;;;;;;;;;;;17.60;69.61;101633.50;5013230;28;1959;-41
2020/12/06 07:22:20;;;;;;;;;;;;;;;17.60;68.65;101627.28;5012962;28;1694;-40
2020/12/06 07:24:46;;;;;;;;;;;;;;;17.58;69.36;101623.88;5013500;28;1758;-40
2020/12/06 07:27:12;;;;;;;;;;;;;;;17.61;68.53;101640.56;5011860;28;1886;-40
2020/12/06 07:29:40;;;;;;;;;;;;;;;17.68;69.53;101641.84;5012776;28;1827;-40
2020/12/06 07:32:05;;;;;;;;;;;;;;;17.84;67.87;101630.13;5012642;28;1438;-40
2020/12/06 07:34:31;;;;;;;;;;;;;;;18.05;67.80;101630.44;5012607;28;1441;-41
2020/12/06 07:36:56;;;;;;;;;;;;;;;18.30;67.65;101629.53;5007829;28;1650;-41
2020/12/06 07:39:21;;;;;;;;;;;;;;;18.71;66.70;101614.97;5006494;28;2004;-41
2020/12/06 07:41:48;;;;;;;;;;;;;;;18.85;66.63;101622.88;5009852;28;1378;-41
2020/12/06 07:44:13;;;;;;;;;;;;;;;18.92;66.59;101627.78;5005733;28;11034;-41
2020/12/06 07:46:38;;;;;;;;;;;;;;;19.01;66.52;101625.28;4993339;28;1226;-41
2020/12/06 07:49:04;;;;;;;;;;;;;;;19.19;66.10;101617.66;4993420;28;1202;-40
2020/12/06 07:51:29;;;;;;;;;;;;;;;19.36;66.53;101626.25;4993576;28;1312;-40
2020/12/06 07:53:56;;;;;;;;;;;;;;;19.51;67.00;101621.56;4993382;28;1245;-40
2020/12/06 07:56:22;;;;;;;;;;;;;;;19.66;67.22;101623.06;4989728;28;1356;-41
2020/12/06 07:58:59;;;;;;;;;;;;;;;19.75;66.64;101627.72;4992973;28;1913;-40
2020/12/06 08:01:25;;;;;;;;;;;;;;;20.16;64.77;101622.78;4991856;28;1778;-40
2020/12/06 08:03:53;;;;;;;;;;;;;;;20.04;65.82;101627.28;4992859;28;1761;-41
2020/12/06 08:06:19;;;;;;;;;;;;;;;20.11;64.25;101625.81;4992352;28;1487;-38
2020/12/06 08:08:48;;;;;;;;;;;;;;;20.39;63.90;101634.34;4992075;28;1725;-41
2020/12/06 08:11:15;;;;;;;;;;;;;;;20.34;64.38;101629.34;4992652;28;1682;-41
2020/12/06 08:13:40;;;;;;;;;;;;;;;20.25;64.54;101633.66;4947033;28;10998;-41
2020/12/06 08:16:06;;;;;;;;;;;;;;;20.21;64.89;101624.13;5022772;28;11927;-41
2020/12/06 08:18:31;;;;;;;;;;;;;;;20.21;65.05;101628.63;5012358;28;1969;-41
2020/12/06 08:20:56;;;;;;;;;;;;;;;20.18;64.20;101629.72;5010225;28;2748;-40
2020/12/06 08:23:36;;;;;;;;;;;;;;;20.09;64.75;101619.72;5011421;28;1943;-41
2020/12/06 08:26:02;;;;;;;;;;;;;;;20.01;65.32;101625.69;5011281;28;1834;-40
2020/12/06 08:28:28;;;;;;;;;;;;;;;19.98;65.49;101625.09;5011437;28;1626;-40
2020/12/06 08:30:54;;;;;;;;;;;;;;;19.98;65.95;101630.47;5010113;28;1815;-41
2020/12/06 08:33:25;;;;;;;;;;;;;;;20.22;66.09;101628.50;5009924;28;1659;-40
2020/12/06 08:35:56;;;;;;;;;;;;;;;20.34;65.97;101618.59;5013233;28;1309;-40
2020/12/06 08:38:24;;;;;;;;;;;;;;;20.39;66.43;101623.59;5010410;28;1916;-40
2020/12/06 08:40:56;;;;;;;;;;;;;;;20.39;65.74;101623.59;5008657;28;1738;-41
2020/12/06 08:43:21;;;;;;;;;;;;;;;20.32;66.88;101609.81;5011530;28;1542;-41
2020/12/06 08:46:03;;;;;;;;;;;;;;;20.21;66.66;101609.81;5013558;28;1167;-40
2020/12/06 08:48:29;;;;;;;;;;;;;;;20.08;67.34;101618.00;5017257;28;1827;-41
2020/12/06 08:50:55;;;;;;;;;;;;;;;19.96;68.06;101616.31;5014735;28;1294;-41
2020/12/06 08:53:23;;;;;;;;;;;;;;;19.88;67.78;101616.91;5013233;28;1464;-40
2020/12/06 08:55:49;;;;;;;;;;;;;;;19.75;68.62;101605.41;5011465;28;1829;-40
2020/12/06 08:58:28;;;;;;;;;;;;;;;19.80;68.21;101613.97;5009140;28;1664;-42
2020/12/06 09:01:03;;;;;;;;;;;;;;;19.77;67.96;101616.88;5011022;28;1674;-40
2020/12/06 09:03:29;;;;;;;;;;;;;;;19.76;67.64;101607.97;5007662;28;1672;-41
2020/12/06 09:05:55;;;;;;;;;;;;;;;19.65;68.00;101599.88;5011465;28;1731;-41
2020/12/06 09:08:20;;;;;;;;;;;;;;;19.61;68.49;101609.13;5011263;28;1540;-40
2020/12/06 09:10:45;;;;;;;;;;;;;;;19.50;68.57;101601.94;5013807;28;1837;-40
2020/12/06 09:13:10;;;;;;;;;;;;;;;19.57;68.12;101607.66;5009904;28;1553;-40
2020/12/06 09:15:37;;;;;;;;;;;;;;;19.60;68.11;101602.06;5012301;28;1613;-40
2020/12/06 09:18:03;;;;;;;;;;;;;;;19.58;67.84;101602.19;5010836;28;1794;-40
2020/12/06 09:20:33;;;;;;;;;;;;;;;19.55;68.02;101596.19;5010379;28;1977;-40
2020/12/06 09:22:58;;;;;;;;;;;;;;;19.47;68.36;101596.78;5010915;28;1302;-40
2020/12/06 09:25:26;;;;;;;;;;;;;;;19.50;68.35;101584.97;5009317;28;1500;-40
2020/12/06 09:28:06;;;;;;;;;;;;;;;19.41;68.37;101576.66;5011205;28;1556;-40
2020/12/06 09:30:31;;;;;;;;;;;;;;;19.30;68.69;101573.09;5007613;28;1800;-41
2020/12/06 09:32:57;;;;;;;;;;;;;;;19.19;69.56;101581.97;5011497;28;1698;-41
2020/12/06 09:35:22;;;;;;;;;;;;;;;19.03;69.62;101575.06;5011228;28;1714;-40
2020/12/06 09:37:47;;;;;;;;;;;;;;;19.01;69.76;101579.69;5012403;28;1597;-40
2020/12/06 09:40:12;;;;;;;;;;;;;;;19.05;69.65;101572.28;5008227;28;1902;-39
2020/12/06 09:42:38;;;;;;;;;;;;;;;19.16;69.27;101576.81;4999088;28;1665;-40
2020/12/06 09:45:03;;;;;;;;;;;;;;;19.22;69.11;101565.66;5001324;28;1599;-40
2020/12/06 09:47:28;;;;;;;;;;;;;;;19.25;69.06;101560.03;5016281;28;1474;-40
2020/12/06 09:49:53;;;;;;;;;;;;;;;19.27;69.32;101561.63;5010157;28;1772;-40
2020/12/06 09:52:19;;;;;;;;;;;;;;;19.42;68.55;101564.97;5010125;28;1804;-39
2020/12/06 09:54:44;;;;;;;;;;;;;;;19.65;67.60;101556.94;5010303;28;1697;-39
2020/12/06 09:57:09;;;;;;;;;;;;;;;19.91;67.24;101554.06;5010351;28;1843;-41
2020/12/06 09:59:34;;;;;;;;;;;;;;;19.92;67.16;101550.41;5011315;28;1894;-40
2020/12/06 10:02:00;;;;;;;;;;;;;;;19.97;66.71;101551.72;5008755;28;1803;-40
2020/12/06 10:04:25;;;;;;;;;;;;;;;20.02;66.98;101554.06;5008810;28;1754;-41
2020/12/06 10:06:50;;;;;;;;;;;;;;;20.02;66.78;101549.53;5009601;28;1509;-41
2020/12/06 10:09:15;;;;;;;;;;;;;;;20.07;66.56;101538.41;5008642;28;1656;-40
2020/12/06 10:11:41;;;;;;;;;;;;;;;20.15;66.31;101535.97;5009008;28;1796;-40
2020/12/06 10:14:06;;;;;;;;;;;;;;;20.17;67.65;101520.59;5010496;28;1393;-41
2020/12/06 10:16:32;;;;;;;;;;;;;;;20.21;66.53;101531.94;5010389;28;1753;-40
2020/12/06 10:18:58;;;;;;;;;;;;;;;20.15;66.13;101527.91;5008531;28;1926;-40
2020/12/06 10:21:25;;;;;;;;;;;;;;;20.13;66.73;101527.19;5010038;28;1695;-40
2020/12/06 10:23:50;;;;;;;;;;;;;;;20.08;66.79;101532.09;5011090;28;1686;-40
2020/12/06 10:26:16;;;;;;;;;;;;;;;19.99;66.77;101522.94;5010124;28;1565;-40
2020/12/06 10:28:50;;;;;;;;;;;;;;;19.94;66.96;101530.50;5008462;28;1599;-40
2020/12/06 10:31:20;;;;;;;;;;;;;;;19.93;67.52;101511.84;5005498;28;2503;-40
2020/12/06 10:33:46;;;;;;;;;;;;;;;19.97;67.37;101521.34;5008170;28;1692;-40
2020/12/06 10:36:11;;;;;;;;;;;;;;;19.93;67.51;101510.00;5002849;28;1708;-41
2020/12/06 10:38:42;;;;;;;;;;;;;;;19.81;67.86;101525.25;5008570;28;1906;-41
2020/12/06 10:41:10;;;;;;;;;;;;;;;19.74;67.80;101507.97;5004936;28;1433;-40
2020/12/06 10:43:35;;;;;;;;;;;;;;;19.66;68.29;101505.00;5012322;28;1551;-40
2020/12/06 10:46:00;;;;;;;;;;;;;;;19.64;68.12;101513.16;5010290;28;1567;-40
2020/12/06 10:48:26;;;;;;;;;;;;;;;19.57;68.39;101516.44;5009974;28;1743;-40
2020/12/06 10:50:52;;;;;;;;;;;;;;;19.51;68.66;101504.38;5007052;28;1945;-40
2020/12/06 10:53:18;;;;;;;;;;;;;;;19.53;68.32;101499.72;5008995;28;1888;-40
2020/12/06 10:55:43;;;;;;;;;;;;;;;19.48;68.44;101504.63;5009038;28;1765;-40
2020/12/06 10:58:09;;;;;;;;;;;;;;;19.47;68.37;101509.13;5007927;28;1562;-40
2020/12/06 11:00:34;;;;;;;;;;;;;;;19.48;68.29;101502.78;5005922;28;1893;-40
2020/12/06 11:02:59;;;;;;;;;;;;;;;19.45;68.52;101500.34;5007299;28;1740;-40
2020/12/06 11:05:24;;;;;;;;;;;;;;;19.42;68.25;101503.28;5009368;28;1736;-40
2020/12/06 11:07:49;;;;;;;;;;;;;;;19.42;68.36;101503.28;5029488;28;1248;-41
2020/12/06 11:10:15;;;;;;;;;;;;;;;19.49;68.29;101500.94;5009951;28;1903;-40
2020/12/06 11:12:40;;;;;;;;;;;;;;;19.55;68.08;101494.25;5008940;28;1699;-40
2020/12/06 11:15:05;;;;;;;;;;;;;;;19.57;67.96;101489.63;5009779;28;1605;-39
2020/12/06 11:17:30;;;;;;;;;;;;;;;19.60;67.78;101489.38;5012498;28;964;-40
2020/12/06 11:19:57;;;;;;;;;;;;;;;19.74;67.51;101488.31;5012474;28;1967;-40
2020/12/06 11:22:22;;;;;;;;;;;;;;;19.75;67.24;101480.13;5012395;28;1736;-40
2020/12/06 11:24:48;;;;;;;;;;;;;;;19.72;67.89;101474.19;5013532;28;1710;-41
2020/12/06 11:27:13;;;;;;;;;;;;;;;19.66;67.96;101481.69;5015381;28;1524;-40
2020/12/06 11:29:38;;;;;;;;;;;;;;;19.79;67.60;101473.53;5013791;28;2340;-40
2020/12/06 11:32:03;;;;;;;;;;;;;;;19.86;67.06;101480.13;3874410;28;10001372;-40
2020/12/06 11:34:29;;;;;;;;;;;;;;;19.84;67.50;101471.34;4999313;28;1723;-41
2020/12/06 11:36:54;;;;;;;;;;;;;;;19.82;67.54;101472.47;4986877;28;1674;-40
2020/12/06 11:39:19;;;;;;;;;;;;;;;19.82;67.30;101476.00;4987566;28;1980;-40
2020/12/06 11:41:44;;;;;;;;;;;;;;;19.80;67.19;101458.31;4990890;28;1655;-40
2020/12/06 11:44:09;;;;;;;;;;;;;;;19.76;67.66;101463.06;4991744;28;1215;-40
2020/12/06 11:46:35;;;;;;;;;;;;;;;19.72;67.97;101460.75;4992615;28;1620;-40
2020/12/06 11:49:01;;;;;;;;;;;;;;;19.70;67.62;101452.78;4995038;28;1665;-40
2020/12/06 11:51:27;;;;;;;;;;;;;;;19.69;67.36;101459.13;4989143;28;1771;-41
2020/12/06 11:53:55;;;;;;;;;;;;;;;19.59;67.96;101444.75;4995410;28;1436;-40
2020/12/06 11:56:22;;;;;;;;;;;;;;;19.58;67.80;101448.41;4995206;28;1493;-41
2020/12/06 11:58:57;;;;;;;;;;;;;;;19.56;67.77;101443.16;5004358;28;1968;-40
2020/12/06 12:01:22;;;;;;;;;;;;;;;19.55;67.43;101443.28;5009965;28;1627;-40
2020/12/06 12:03:47;;;;;;;;;;;;;;;19.52;67.54;101438.16;4982630;28;1685;-40
2020/12/06 12:06:17;;;;;;;;;;;;;;;19.49;67.48;101444.63;4985692;28;1402;-41
2020/12/06 12:08:43;;;;;;;;;;;;;;;19.47;67.75;101458.16;5011402;28;1698;-40
2020/12/06 12:11:10;;;;;;;;;;;;;;;19.41;67.55;101455.09;4992392;28;2079;-40
2020/12/06 12:13:40;;;;;;;;;;;;;;;19.44;67.49;101452.19;4995551;28;900;-40
2020/12/06 12:16:08;;;;;;;;;;;;;;;19.44;67.29;101439.63;4996587;28;1734;-40
2020/12/06 12:18:35;;;;;;;;;;;;;;;19.41;67.56;101453.28;4984970;28;1952;-40
2020/12/06 12:21:02;;;;;;;;;;;;;;;19.46;67.55;101461.81;4986142;28;1571;-40
2020/12/06 12:23:29;;;;;;;;;;;;;;;19.41;67.74;101458.63;4987885;28;1787;-40
2020/12/06 12:25:57;;;;;;;;;;;;;;;19.44;67.59;101453.03;4993427;28;1853;-40
2020/12/06 12:28:23;;;;;;;;;;;;;;;19.52;67.52;101447.06;4987842;28;2019;-41
2020/12/06 12:30:52;;;;;;;;;;;;;;;19.56;67.14;101451.22;4985396;28;1802;-40
2020/12/06 12:33:18;;;;;;;;;;;;;;;19.62;67.25;101447.19;4992014;28;1630;-41
2020/12/06 12:36:04;;;;;;;;;;;;;;;19.63;67.35;101436.31;4990409;28;1642;-40
2020/12/06 12:38:31;;;;;;;;;;;;;;;19.65;67.52;101442.41;4979103;28;1914;-40
2020/12/06 12:40:57;;;;;;;;;;;;;;;19.67;67.33;101436.94;4994743;28;1802;-40
2020/12/06 12:43:22;;;;;;;;;;;;;;;19.68;67.35;101444.00;4983993;28;1855;-40